Webcam 1 more information Webcam 1


Webcam 2 more information Webcam 2


avvertimento per Temporali more information blitzortung!


avvertimento per Pioggia more information rain snow radar


altri nostri siti meteo:

Pomeziameteo 1Sito sul meteo

Pomeziameteo DashboardSito sul meteo

Caput FrigorisSito sul meteo

BarcellonameteoSito sul meteo

MeteoipassiSito sul meteo

ViterbometeoSito sul meteo

MeteotortoretoSito sul meteo

Stazione LineameteoSito sul meteo



Temporali Inizio validita dal: 21-10-2018 13:00 Fino: 23-10-2018 00:59 Allerta per: Temporali Livello: Arancione info button
Pioggia Inizio validita dal: 21-10-2018 13:00 Fino: 23-10-2018 00:59 Allerta per: Pioggia Livello: Arancione info button
Vento Inizio validita dal: 21-10-2018 13:00 Fino: 22-10-2018 00:59 Allerta per: Vento Livello: Giallo info button

Report METAR

   
LIBP - Pescara
Dati ricevuti: 21-10-2018 23:56
Pioggia, Coperto  
Pioggia, Coperto  
   Vento: S 11.1 km/h
Vento: S 11.1 km/h
Temperatura: 11°C
P.to Rugiada: 9°C
Umidita: 88%
Barometro: 1019 hPa
Nuvole: Coperto
Visibilita: oltre 10 km
dettagli cloud: Coperto 5200 ft
LIBP 212156Z AUTO 21006KT 9999 RA OVC052/// 11/09 Q1019
LIRZ - Perugia
Dati ricevuti: 21-10-2018 23:50
Poche nuvole  
Poche nuvole  
   Vento: NNW 18.5 km/h
Vento: NNW 18.5 km/h
Temperatura: 10°C
Temperatura Vento: 8°C
P.to Rugiada: 5°C
Umidita: 71%
Barometro: 1018 hPa
Nuvole: Poche nuvole
Visibilita: oltre 10 km
dettagli cloud: Poche nuvole 6700 ft
LIRZ 212150Z AUTO 34010KT 9999 FEW067/// 10/05 Q1018
LIQN - Rieti
Dati ricevuti: 21-10-2018 18:50
DATI Obsoleti
Poche nuvole  
Poche nuvole  
   Vento: Variabile 5.6 km/h
Vento: Variabile 5.6 km/h
Temperatura: 16°C
P.to Rugiada: 10°C
Umidita: 68%
Barometro: 1014 hPa
Nuvole: Poche nuvole
Visibilita: oltre 10 km
dettagli cloud: Poche nuvole 4800 ft
LIQN 211650Z VRB03KT 9999 FEW048 16/10 Q1014
LIPY - Falconara
Dati ricevuti: 21-10-2018 23:50
Molto nuvoloso  
Molto nuvoloso  
   Vento: Variabile 7.4 km/h<br />Gust to 7.4 km/h
Vento: Variabile 7.4 km/h
Gust to 7.4 km/h
Temperatura: 10°C
Temperatura Vento: 9°C
P.to Rugiada: 9°C
Umidita: 94%
Barometro: 1020 hPa
Nuvole: Molto nuvoloso
Visibilita: oltre 10 km
dettagli cloud: Poche nuvole 1500 ft,
Parzialmente nuvoloso 3000 ft,
Molto nuvoloso 6000 ft
LIPY 212150Z VRB04G17KT 9999 FEW015 SCT030 BKN060 10/09 Q1020 RETSRA
  

Script sviluppato da  Saratoga-weather.org Adattato per il modello da  Weerstation Leuven

Potete trovare le nostre info meteo anche a:

Weather Underground

AWEKAS

Citizen Weather Observer Program (CWOP)

HAMweather, WeatherForYou, PWS Weather

Strumentazione usata:

Stazione meteo
Oregon 928

Programma gestore dati meteo
WVIEW

Server per i dati meteo
Pc-WDS5

Oregon 928

WVIEW

Pc-WDS5